createdAt,value
2023-02-28T00:01:34.634Z,9.90
2023-02-28T00:04:03.295Z,12.30
2023-02-28T00:06:31.460Z,12.40
2023-02-28T00:08:59.720Z,11.68
2023-02-28T00:11:28.635Z,13.95
2023-02-28T00:13:57.470Z,10.32
2023-02-28T00:16:25.615Z,14.85
2023-02-28T00:18:53.868Z,12.32
2023-02-28T00:21:22.214Z,14.55
2023-02-28T00:23:51.647Z,13.23
2023-02-28T00:26:21.697Z,10.18
2023-02-28T00:28:54.135Z,13.65
2023-02-28T00:31:24.123Z,10.57
2023-02-28T00:33:53.042Z,13.63
2023-02-28T00:36:23.069Z,10.10
2023-02-28T00:38:53.534Z,14.60
2023-02-28T00:41:21.573Z,16.08
2023-02-28T00:43:50.374Z,12.40
2023-02-28T00:46:18.416Z,12.88
2023-02-28T00:48:47.037Z,12.65
2023-02-28T00:51:16.179Z,13.40
2023-02-28T00:53:44.371Z,14.40
2023-02-28T00:56:12.516Z,12.02
2023-02-28T00:58:41.499Z,12.80
2023-02-28T01:01:09.358Z,11.80
2023-02-28T01:03:44.427Z,13.68
2023-02-28T01:06:12.445Z,12.25
2023-02-28T01:08:40.730Z,13.48
2023-02-28T01:11:11.468Z,13.32
2023-02-28T01:13:43.409Z,15.75
2023-02-28T01:16:14.423Z,16.80
2023-02-28T01:18:42.655Z,14.15
2023-02-28T01:21:14.296Z,14.20
2023-02-28T01:23:44.341Z,18.17
2023-02-28T01:26:23.960Z,13.95
2023-02-28T01:28:54.125Z,15.40
2023-02-28T01:31:23.170Z,15.70
2023-02-28T01:33:51.811Z,18.00
2023-02-28T01:36:23.921Z,14.70
2023-02-28T01:38:52.745Z,17.65
2023-02-28T01:41:29.150Z,13.70
2023-02-28T01:44:04.492Z,14.82
2023-02-28T01:46:35.077Z,14.65
2023-02-28T01:49:09.929Z,12.35
2023-02-28T01:51:40.968Z,17.20
2023-02-28T01:54:16.945Z,15.00
2023-02-28T01:57:07.895Z,14.45
2023-02-28T01:59:51.320Z,14.63
2023-02-28T02:02:22.411Z,15.30
2023-02-28T02:05:02.957Z,16.33
2023-02-28T02:07:42.754Z,13.50
2023-02-28T02:10:18.238Z,13.73
2023-02-28T02:13:18.585Z,16.65
2023-02-28T02:16:28.308Z,17.63
2023-02-28T02:19:17.251Z,18.42
2023-02-28T02:22:02.778Z,17.85
2023-02-28T02:25:08.716Z,16.02
2023-02-28T02:28:04.906Z,22.52
2023-02-28T02:30:54.768Z,15.45
2023-02-28T02:33:42.500Z,15.63
2023-02-28T02:36:27.375Z,17.25
2023-02-28T02:39:18.352Z,15.82
2023-02-28T02:41:55.121Z,16.02
2023-02-28T02:47:13.259Z,15.73
2023-02-28T02:49:47.523Z,16.95
2023-02-28T02:52:19.915Z,16.42
2023-02-28T02:54:56.500Z,18.27
2023-02-28T02:57:45.401Z,16.08
2023-02-28T03:00:19.315Z,18.15
2023-02-28T03:02:50.854Z,19.58
2023-02-28T03:05:50.487Z,20.08
2023-02-28T03:08:18.681Z,21.77
2023-02-28T03:10:51.497Z,18.58
2023-02-28T03:13:19.463Z,18.05
2023-02-28T03:16:00.800Z,20.65
2023-02-28T03:18:52.247Z,18.40
2023-02-28T03:21:31.855Z,26.98
2023-02-28T03:24:13.208Z,17.52
2023-02-28T03:26:46.475Z,16.42
2023-02-28T03:29:39.304Z,17.92
2023-02-28T03:32:18.551Z,17.00
2023-02-28T03:34:58.246Z,19.67
2023-02-28T03:37:28.537Z,19.35
2023-02-28T03:40:19.632Z,17.80
2023-02-28T03:42:51.405Z,19.33
2023-02-28T03:45:26.270Z,19.10
2023-02-28T03:48:00.392Z,17.77
2023-02-28T03:50:28.204Z,16.60
2023-02-28T03:53:12.717Z,18.23
2023-02-28T03:56:05.453Z,18.52
2023-02-28T03:58:50.715Z,16.23
2023-02-28T04:01:22.293Z,19.55
2023-02-28T04:03:51.682Z,17.90
2023-02-28T04:06:22.335Z,16.98
2023-02-28T04:08:50.863Z,21.00
2023-02-28T04:11:25.289Z,19.38
2023-02-28T04:13:53.792Z,16.70
2023-02-28T04:16:33.786Z,23.35
2023-02-28T04:19:08.354Z,22.38
2023-02-28T04:21:40.313Z,22.75
2023-02-28T04:24:15.866Z,19.08
2023-02-28T04:26:47.378Z,22.73
2023-02-28T04:29:21.033Z,19.90
2023-02-28T04:31:49.079Z,18.17
2023-02-28T04:34:17.835Z,19.75
2023-02-28T04:37:12.739Z,19.45
2023-02-28T04:39:42.566Z,18.85
2023-02-28T04:42:11.388Z,25.92
2023-02-28T04:44:40.597Z,22.80
2023-02-28T04:47:08.524Z,23.70
2023-02-28T04:49:36.993Z,20.23
2023-02-28T04:52:04.936Z,26.38
2023-02-28T04:54:33.149Z,23.15
2023-02-28T04:57:03.249Z,19.75
2023-02-28T04:59:31.483Z,22.58
2023-02-28T05:01:59.316Z,22.35
2023-02-28T05:04:27.987Z,22.08
2023-02-28T05:06:56.679Z,22.63
2023-02-28T05:09:25.466Z,20.63
2023-02-28T05:11:53.699Z,19.80
2023-02-28T05:14:22.817Z,22.92
2023-02-28T05:16:51.879Z,20.52
2023-02-28T05:19:22.626Z,23.23
2023-02-28T05:21:57.042Z,25.73
2023-02-28T05:24:27.406Z,25.15
2023-02-28T05:26:56.190Z,29.80
2023-02-28T05:29:25.418Z,28.63
2023-02-28T05:31:53.476Z,24.55
2023-02-28T05:34:21.865Z,27.75
2023-02-28T05:36:49.834Z,27.42
2023-02-28T05:39:18.286Z,27.25
2023-02-28T05:41:46.080Z,23.48
2023-02-28T05:44:14.228Z,28.30
2023-02-28T05:46:42.499Z,21.92
2023-02-28T05:49:10.718Z,30.30
2023-02-28T05:51:41.137Z,27.92
2023-02-28T05:54:10.160Z,29.83
2023-02-28T05:56:41.196Z,32.95
2023-02-28T05:59:09.738Z,29.75
2023-02-28T06:01:42.828Z,31.63
2023-02-28T06:04:22.198Z,32.85
2023-02-28T06:06:58.777Z,26.33
2023-02-28T06:09:27.067Z,29.45
2023-02-28T06:11:56.816Z,36.78
2023-02-28T06:14:25.468Z,27.73
2023-02-28T06:16:53.689Z,31.58
2023-02-28T06:19:23.613Z,30.92
2023-02-28T06:21:54.018Z,35.72
2023-02-28T06:24:23.995Z,26.38
2023-02-28T06:26:52.615Z,27.27
2023-02-28T06:29:21.045Z,37.72
2023-02-28T06:31:49.959Z,30.65
2023-02-28T06:34:18.748Z,33.30
2023-02-28T06:36:46.633Z,27.50
2023-02-28T06:39:14.941Z,35.83
2023-02-28T06:41:54.817Z,31.98
2023-02-28T06:44:25.285Z,32.55
2023-02-28T06:46:54.715Z,27.13
2023-02-28T06:49:22.999Z,29.80
2023-02-28T06:51:51.221Z,27.05
2023-02-28T06:54:19.561Z,26.33
2023-02-28T06:56:49.221Z,26.02
2023-02-28T06:59:18.471Z,33.80
2023-02-28T07:01:47.178Z,31.05
2023-02-28T07:04:15.545Z,27.25
2023-02-28T07:06:43.720Z,28.83
2023-02-28T07:09:12.072Z,31.48
2023-02-28T07:11:39.884Z,27.27
2023-02-28T07:14:08.720Z,25.55
2023-02-28T07:16:37.173Z,27.85
2023-02-28T07:19:05.534Z,29.23
2023-02-28T07:21:34.259Z,22.55
2023-02-28T07:24:02.752Z,23.92
2023-02-28T07:26:30.530Z,32.65
2023-02-28T07:28:58.729Z,25.63
2023-02-28T07:31:29.264Z,25.08
2023-02-28T07:33:59.045Z,29.83
2023-02-28T07:36:27.851Z,27.80
2023-02-28T07:38:57.556Z,35.72
2023-02-28T07:41:29.274Z,26.63
2023-02-28T07:43:58.850Z,31.02
2023-02-28T07:46:30.468Z,39.45
2023-02-28T07:49:00.857Z,29.58
2023-02-28T07:51:29.193Z,24.17
2023-02-28T07:54:01.633Z,25.08
2023-02-28T07:56:29.908Z,28.95
2023-02-28T07:58:58.534Z,27.92
2023-02-28T08:01:26.714Z,25.23
2023-02-28T08:03:56.541Z,28.98
2023-02-28T08:06:27.982Z,21.55
2023-02-28T08:08:57.391Z,24.33
2023-02-28T08:11:25.334Z,25.98
2023-02-28T08:13:56.675Z,21.33
2023-02-28T08:16:24.758Z,20.70
2023-02-28T08:18:54.463Z,20.23
2023-02-28T08:21:23.212Z,24.48
2023-02-28T08:23:58.070Z,22.65
2023-02-28T08:26:26.920Z,20.85
2023-02-28T08:28:56.828Z,23.70
2023-02-28T08:31:25.270Z,26.45
2023-02-28T08:33:54.462Z,18.70
2023-02-28T08:36:22.538Z,20.73
2023-02-28T08:38:50.826Z,21.52
2023-02-28T08:41:19.193Z,22.30
2023-02-28T08:43:47.444Z,20.80
2023-02-28T08:46:15.863Z,23.83
2023-02-28T08:48:45.339Z,28.38
2023-02-28T08:51:21.396Z,25.40
2023-02-28T08:53:52.355Z,25.67
2023-02-28T08:56:20.979Z,22.45
2023-02-28T08:58:51.557Z,22.42
2023-02-28T09:01:22.396Z,20.05
2023-02-28T09:03:52.697Z,20.80
2023-02-28T09:06:24.318Z,30.45
2023-02-28T09:08:53.366Z,23.23
2023-02-28T09:11:23.676Z,32.75
2023-02-28T09:13:52.868Z,25.55
2023-02-28T09:16:21.064Z,16.90
2023-02-28T09:18:49.558Z,18.48
2023-02-28T09:21:19.548Z,15.77
2023-02-28T09:23:50.822Z,16.20
2023-02-28T09:26:32.476Z,22.55
2023-02-28T09:29:09.560Z,20.88
2023-02-28T09:31:37.883Z,21.23
2023-02-28T09:34:06.603Z,19.52
2023-02-28T09:36:44.823Z,20.33
2023-02-28T09:39:16.863Z,22.58
2023-02-28T09:41:52.265Z,18.77
2023-02-28T09:44:41.568Z,26.17
2023-02-28T09:47:20.629Z,18.77
2023-02-28T09:49:51.158Z,21.23
2023-02-28T09:52:27.476Z,22.92
2023-02-28T09:54:57.111Z,21.17
2023-02-28T09:57:34.928Z,24.42
2023-02-28T10:00:11.668Z,21.35
2023-02-28T10:02:49.236Z,18.23
2023-02-28T10:05:21.714Z,20.15
2023-02-28T10:08:14.828Z,15.02
2023-02-28T10:10:46.659Z,18.88
2023-02-28T10:13:30.483Z,13.35
2023-02-28T10:16:20.670Z,13.45
2023-02-28T10:18:58.743Z,16.88
2023-02-28T10:21:35.361Z,16.23
2023-02-28T10:24:18.077Z,12.48
2023-02-28T10:26:50.649Z,15.93
2023-02-28T10:29:18.917Z,11.07
2023-02-28T10:31:47.140Z,12.02
2023-02-28T10:34:15.682Z,15.23
2023-02-28T10:36:45.121Z,13.15
2023-02-28T10:39:38.963Z,15.32
2023-02-28T10:42:21.144Z,14.35
2023-02-28T10:44:49.566Z,15.63
2023-02-28T10:47:20.924Z,13.90
2023-02-28T10:49:50.854Z,9.40
2023-02-28T10:52:49.210Z,13.05
2023-02-28T10:57:50.317Z,10.38
2023-02-28T11:00:22.819Z,13.57
2023-02-28T11:02:51.152Z,9.93
2023-02-28T11:05:29.509Z,11.80
2023-02-28T11:08:13.351Z,21.63
2023-02-28T11:10:45.906Z,14.68
2023-02-28T11:13:24.296Z,12.57
2023-02-28T11:15:56.742Z,13.25
2023-02-28T11:18:43.983Z,9.75
2023-02-28T11:21:19.341Z,14.77
2023-02-28T11:23:48.846Z,8.90
2023-02-28T11:26:17.752Z,11.50
2023-02-28T11:28:49.195Z,10.32
2023-02-28T11:31:21.016Z,16.38
2023-02-28T11:33:57.847Z,13.93
2023-02-28T11:36:35.350Z,12.60
2023-02-28T11:39:13.760Z,12.43
2023-02-28T11:41:59.510Z,13.35
2023-02-28T11:44:46.381Z,15.32
2023-02-28T11:47:27.321Z,10.18
2023-02-28T11:50:32.365Z,13.35
2023-02-28T11:53:07.212Z,13.75
2023-02-28T11:55:40.490Z,9.93
2023-02-28T11:58:12.097Z,15.48
2023-02-28T12:00:44.358Z,10.65
2023-02-28T12:03:21.133Z,12.70
2023-02-28T12:06:16.988Z,10.15
2023-02-28T12:09:04.090Z,12.23
2023-02-28T12:12:15.476Z,14.20
2023-02-28T12:14:51.365Z,14.05
2023-02-28T12:17:34.612Z,13.35
2023-02-28T12:20:46.140Z,12.20
2023-02-28T12:23:34.139Z,12.85
2023-02-28T12:28:47.952Z,11.10
2023-02-28T12:31:23.536Z,11.35
2023-02-28T12:34:02.015Z,11.18
2023-02-28T12:36:30.261Z,13.25
2023-02-28T12:39:04.219Z,15.07
2023-02-28T12:41:47.694Z,11.80
2023-02-28T12:44:35.962Z,10.30
2023-02-28T12:47:16.775Z,11.95
2023-02-28T12:49:53.007Z,10.57
2023-02-28T12:52:50.725Z,12.98
2023-02-28T12:55:55.969Z,14.30
2023-02-28T12:58:51.546Z,11.65
2023-02-28T13:01:29.533Z,9.57
2023-02-28T13:04:28.780Z,19.77
2023-02-28T13:07:24.486Z,11.65
2023-02-28T13:09:59.083Z,13.48
2023-02-28T13:12:28.239Z,9.73
2023-02-28T13:15:22.513Z,13.38
2023-02-28T13:17:53.228Z,15.38
2023-02-28T13:20:36.109Z,15.77
2023-02-28T13:23:06.926Z,11.90
2023-02-28T13:25:52.627Z,14.80
2023-02-28T13:29:00.185Z,12.82
2023-02-28T13:31:30.422Z,19.13
2023-02-28T13:34:00.712Z,12.35
2023-02-28T13:36:33.200Z,11.45
2023-02-28T13:39:41.264Z,10.52
2023-02-28T13:42:32.062Z,12.80
2023-02-28T13:45:07.938Z,13.75
2023-02-28T13:47:49.114Z,14.07
2023-02-28T13:50:35.543Z,8.63
2023-02-28T13:53:15.261Z,12.57
2023-02-28T13:55:56.113Z,11.00
2023-02-28T13:58:47.792Z,13.25
2023-02-28T14:01:43.412Z,11.35
2023-02-28T14:04:23.027Z,12.05
2023-02-28T14:06:55.204Z,9.98
2023-02-28T14:09:36.827Z,11.13
2023-02-28T14:12:42.465Z,12.52
2023-02-28T14:15:42.985Z,14.05
2023-02-28T14:18:19.505Z,11.63
2023-02-28T14:20:49.664Z,13.00
2023-02-28T14:23:50.333Z,18.55
2023-02-28T14:26:32.665Z,13.07
2023-02-28T14:29:35.452Z,11.40
2023-02-28T14:32:25.158Z,17.98
2023-02-28T14:35:02.491Z,20.27
2023-02-28T14:37:34.132Z,13.65
2023-02-28T14:40:05.120Z,15.35
2023-02-28T14:42:38.870Z,14.65
2023-02-28T14:45:07.762Z,12.60
2023-02-28T14:47:37.364Z,11.05
2023-02-28T14:50:06.357Z,13.07
2023-02-28T14:52:34.973Z,12.88
2023-02-28T14:55:16.755Z,23.33
2023-02-28T14:57:57.058Z,12.55
2023-02-28T15:00:29.053Z,10.48
2023-02-28T15:02:58.841Z,15.32
2023-02-28T15:05:29.501Z,10.85
2023-02-28T15:08:16.588Z,12.57
2023-02-28T15:11:04.105Z,12.05
2023-02-28T15:13:49.199Z,10.90
2023-02-28T15:16:33.553Z,15.45
2023-02-28T15:19:04.970Z,11.57
2023-02-28T15:21:43.619Z,15.57
2023-02-28T15:24:25.856Z,13.43
2023-02-28T15:26:58.465Z,11.85
2023-02-28T15:29:29.642Z,12.98
2023-02-28T15:31:58.726Z,13.68
2023-02-28T15:34:42.598Z,13.73
2023-02-28T15:37:34.661Z,12.70
2023-02-28T15:40:15.971Z,12.10
2023-02-28T15:43:18.962Z,13.10
2023-02-28T15:46:15.508Z,15.77
2023-02-28T15:48:55.834Z,12.23
2023-02-28T15:51:37.558Z,12.80
2023-02-28T15:54:10.625Z,13.50
2023-02-28T15:56:44.942Z,14.95
2023-02-28T15:59:24.739Z,13.52
2023-02-28T16:02:11.221Z,14.20
2023-02-28T16:05:17.606Z,13.32
2023-02-28T16:07:50.442Z,14.38
2023-02-28T16:10:21.042Z,8.23
2023-02-28T16:12:54.123Z,15.25
2023-02-28T16:15:24.334Z,13.07
2023-02-28T16:17:52.374Z,16.23
2023-02-28T16:20:28.454Z,13.52
2023-02-28T16:22:56.490Z,19.98
2023-02-28T16:25:34.862Z,30.45
2023-02-28T16:28:04.412Z,17.90
2023-02-28T16:30:35.442Z,20.00
2023-02-28T16:33:03.291Z,19.60
2023-02-28T16:35:31.710Z,18.17
2023-02-28T16:38:19.507Z,18.90
2023-02-28T16:41:08.864Z,11.27
2023-02-28T16:43:45.304Z,15.32
2023-02-28T16:46:25.246Z,15.20
2023-02-28T16:48:59.177Z,12.23
2023-02-28T16:51:34.361Z,15.68
2023-02-28T16:54:05.730Z,15.20
2023-02-28T16:56:35.448Z,19.00
2023-02-28T16:59:03.937Z,17.48
2023-02-28T17:01:33.329Z,18.15
2023-02-28T17:04:01.790Z,19.27
2023-02-28T17:06:32.056Z,15.02
2023-02-28T17:09:00.733Z,22.88
2023-02-28T17:11:32.858Z,17.40
2023-02-28T17:14:00.976Z,23.13
2023-02-28T17:16:36.972Z,19.50
2023-02-28T17:19:07.594Z,24.70
2023-02-28T17:21:36.095Z,17.80
2023-02-28T17:24:04.487Z,27.33
2023-02-28T17:26:33.906Z,20.15
2023-02-28T17:29:03.536Z,20.45
2023-02-28T17:31:34.316Z,19.70
2023-02-28T17:34:02.546Z,17.40
2023-02-28T17:36:31.904Z,22.52
2023-02-28T17:39:00.139Z,22.10
2023-02-28T17:41:31.072Z,28.75
2023-02-28T17:43:59.433Z,20.65
2023-02-28T17:46:30.032Z,22.15
2023-02-28T17:49:00.283Z,15.63
2023-02-28T17:51:28.841Z,18.85
2023-02-28T17:53:58.112Z,21.13
2023-02-28T17:56:28.513Z,20.98
2023-02-28T17:58:57.687Z,21.65
2023-02-28T18:01:27.658Z,22.58
2023-02-28T18:03:56.390Z,22.80
2023-02-28T18:06:25.517Z,18.65
2023-02-28T18:08:54.212Z,18.80
2023-02-28T18:11:24.652Z,18.85
2023-02-28T18:13:55.531Z,20.52
2023-02-28T18:16:24.314Z,21.02
2023-02-28T18:18:52.434Z,21.02
2023-02-28T18:21:20.725Z,19.02
2023-02-28T18:23:48.871Z,21.05
2023-02-28T18:26:19.626Z,21.38
2023-02-28T18:28:48.998Z,20.95
2023-02-28T18:31:20.605Z,22.70
2023-02-28T18:33:50.964Z,19.15
2023-02-28T18:36:21.523Z,16.65
2023-02-28T18:38:50.974Z,24.42
2023-02-28T18:41:21.965Z,28.95
2023-02-28T18:43:52.809Z,26.48
2023-02-28T18:46:22.460Z,21.75
2023-02-28T18:48:50.488Z,19.50
2023-02-28T18:51:22.720Z,24.05
2023-02-28T18:53:51.343Z,30.23
2023-02-28T18:56:23.725Z,24.15
2023-02-28T18:58:53.592Z,20.85
2023-02-28T19:01:24.886Z,22.90
2023-02-28T19:03:53.116Z,21.92
2023-02-28T19:06:21.389Z,19.85
2023-02-28T19:09:00.670Z,21.48
2023-02-28T19:11:29.599Z,22.30
2023-02-28T19:14:00.175Z,18.63
2023-02-28T19:16:29.553Z,23.27
2023-02-28T19:18:58.030Z,18.67
2023-02-28T19:21:26.462Z,20.65
2023-02-28T19:23:54.512Z,20.42
2023-02-28T19:26:25.167Z,19.23
2023-02-28T19:28:54.530Z,22.15
2023-02-28T19:31:25.522Z,22.75
2023-02-28T19:33:54.949Z,20.15
2023-02-28T19:36:24.061Z,20.00
2023-02-28T19:38:52.020Z,18.80
2023-02-28T19:41:20.940Z,20.65
2023-02-28T19:43:48.895Z,17.33
2023-02-28T19:46:17.266Z,21.25
2023-02-28T19:48:49.164Z,26.27
2023-02-28T19:53:51.083Z,20.88
2023-02-28T19:56:23.952Z,18.20
2023-02-28T19:58:52.727Z,24.38
2023-02-28T20:01:21.688Z,22.63
2023-02-28T20:03:50.795Z,18.10
2023-02-28T20:06:19.694Z,23.25
2023-02-28T20:08:47.698Z,34.22
2023-02-28T20:11:17.637Z,21.27
2023-02-28T20:13:46.424Z,17.92
2023-02-28T20:16:15.700Z,22.10
2023-02-28T20:18:46.467Z,16.52
2023-02-28T20:21:15.326Z,16.92
2023-02-28T20:23:45.509Z,21.13
2023-02-28T20:26:14.894Z,20.45
2023-02-28T20:28:43.803Z,17.55
2023-02-28T20:31:17.557Z,16.48
2023-02-28T20:33:47.108Z,16.90
2023-02-28T20:36:23.160Z,16.60
2023-02-28T20:38:53.056Z,17.33
2023-02-28T20:41:22.260Z,18.00
2023-02-28T20:43:58.545Z,17.42
2023-02-28T20:46:27.147Z,18.80
2023-02-28T20:48:55.132Z,17.08
2023-02-28T20:51:24.546Z,23.83
2023-02-28T20:53:53.828Z,16.80
2023-02-28T20:56:24.255Z,18.45
2023-02-28T20:58:56.359Z,19.67
2023-02-28T21:01:28.025Z,16.75
2023-02-28T21:04:02.239Z,19.20
2023-02-28T21:06:34.992Z,18.85
2023-02-28T21:09:07.859Z,17.58
2023-02-28T21:11:38.902Z,16.23
2023-02-28T21:14:15.283Z,20.00
2023-02-28T21:16:45.244Z,16.85
2023-02-28T21:19:13.690Z,19.48
2023-02-28T21:21:44.716Z,16.38
2023-02-28T21:24:18.307Z,18.25
2023-02-28T21:26:47.972Z,20.15
2023-02-28T21:29:16.574Z,17.52
2023-02-28T21:31:45.196Z,16.77
2023-02-28T21:34:14.818Z,14.90
2023-02-28T21:36:47.581Z,15.00
2023-02-28T21:39:27.090Z,16.77
2023-02-28T21:41:57.619Z,17.83
2023-02-28T21:44:28.374Z,17.20
2023-02-28T21:47:01.360Z,16.35
2023-02-28T21:49:29.935Z,17.45
2023-02-28T21:52:00.370Z,17.42
2023-02-28T21:54:28.729Z,13.75
2023-02-28T21:56:57.155Z,16.15
2023-02-28T21:59:25.330Z,13.43
2023-02-28T22:01:55.707Z,15.35
2023-02-28T22:04:23.820Z,20.83
2023-02-28T22:06:54.684Z,14.20
2023-02-28T22:09:23.009Z,19.25
2023-02-28T22:11:52.387Z,14.88
2023-02-28T22:14:21.200Z,13.80
2023-02-28T22:16:52.405Z,18.90
2023-02-28T22:19:23.368Z,13.18
2023-02-28T22:21:54.119Z,18.42
2023-02-28T22:24:24.814Z,16.08
2023-02-28T22:26:53.679Z,12.75
2023-02-28T22:29:22.199Z,13.98
2023-02-28T22:31:51.060Z,15.75
2023-02-28T22:34:21.065Z,18.75
2023-02-28T22:36:49.437Z,15.05
2023-02-28T22:39:17.257Z,14.52
2023-02-28T22:41:45.469Z,16.17
2023-02-28T22:44:13.525Z,15.90
2023-02-28T22:46:41.764Z,21.02
2023-02-28T22:49:11.156Z,17.15
2023-02-28T22:51:40.836Z,16.05
2023-02-28T22:54:09.863Z,17.90
2023-02-28T22:56:38.118Z,15.40
2023-02-28T22:59:07.022Z,15.00
2023-02-28T23:01:35.340Z,16.83
2023-02-28T23:04:04.002Z,25.50
2023-02-28T23:06:43.332Z,19.27
2023-02-28T23:09:17.608Z,17.98
2023-02-28T23:11:49.231Z,12.30
2023-02-28T23:14:19.534Z,14.70
2023-02-28T23:16:54.663Z,16.73
2023-02-28T23:19:29.951Z,18.83
2023-02-28T23:21:59.713Z,16.65
2023-02-28T23:24:30.154Z,16.02
2023-02-28T23:27:02.473Z,15.40
2023-02-28T23:29:32.032Z,19.98
2023-02-28T23:32:01.098Z,14.88
2023-02-28T23:34:30.813Z,18.13
2023-02-28T23:37:01.369Z,19.17
2023-02-28T23:39:31.700Z,17.75
2023-02-28T23:42:00.518Z,18.63
2023-02-28T23:44:28.619Z,12.70
2023-02-28T23:46:57.118Z,19.02
2023-02-28T23:49:26.104Z,16.48
2023-02-28T23:51:54.672Z,13.98
2023-02-28T23:54:22.953Z,18.20
2023-02-28T23:56:51.587Z,19.58
2023-02-28T23:59:19.941Z,14.30
